CSHVD LPPT-LPPT
Flight info
| Callsign | CSHVD |
|---|---|
| Flight time | 0h 47m |
| Altitude | 1500 |
| Route | RALIS TR ENACI DCT CCAIS CROCA DCT ERICE DCT CROCA DCT ENACI TR RALIS |
| Aircraft | EC35/L-VGD/C |
Departure
| Time | 2026-05-03 21:42 |
|---|---|
| Airport | Lisbon Humberto Delgado Airport (LPPT) |
Arrival
| Time | 2026-05-03 22:30 |
|---|---|
| Airport | Lisbon Humberto Delgado Airport (LPPT) |
| Time | Latitude | Longitude | Altitude | Speed | Heading |
|---|---|---|---|---|---|
| 2026-05-03 21:20 | 38.78095 | -9.12865 | 378 ft | 0 kts | 304° |
| 2026-05-03 21:37 | 38.78096 | -9.12855 | 387 ft | 2 kts | 303° |
| 2026-05-03 21:38 | 38.78099 | -9.12852 | 389 ft | 1 kts | 254° |
| 2026-05-03 21:38 | 38.78082 | -9.12847 | 389 ft | 1 kts | 177° |
| 2026-05-03 21:38 | 38.78076 | -9.12839 | 394 ft | 4 kts | 130° |
| 2026-05-03 21:38 | 38.78042 | -9.12802 | 398 ft | 6 kts | 217° |
| 2026-05-03 21:39 | 38.77992 | -9.12847 | 399 ft | 10 kts | 214° |
| 2026-05-03 21:39 | 38.77937 | -9.12888 | 411 ft | 10 kts | 218° |
| 2026-05-03 21:39 | 38.77879 | -9.12935 | 392 ft | 9 kts | 216° |
| 2026-05-03 21:39 | 38.77836 | -9.12973 | 391 ft | 6 kts | 219° |
| 2026-05-03 21:40 | 38.77796 | -9.13008 | 403 ft | 11 kts | 242° |
| 2026-05-03 21:40 | 38.77768 | -9.13102 | 398 ft | 12 kts | 261° |
| 2026-05-03 21:40 | 38.77754 | -9.13182 | 397 ft | 7 kts | 265° |
| 2026-05-03 21:40 | 38.77738 | -9.13298 | 412 ft | 18 kts | 253° |
| 2026-05-03 21:41 | 38.77633 | -9.13409 | 416 ft | 14 kts | 277° |
| 2026-05-03 21:41 | 38.77695 | -9.13474 | 440 ft | 21 kts | 351° |
| 2026-05-03 21:41 | 38.77825 | -9.13513 | 456 ft | 15 kts | 350° |
| 2026-05-03 21:41 | 38.77905 | -9.13525 | 406 ft | 4 kts | 354° |
| 2026-05-03 21:42 | 38.78012 | -9.13566 | 464 ft | 37 kts | 344° |
| 2026-05-03 21:42 | 38.78384 | -9.13449 | 611 ft | 71 kts | 23° |
| 2026-05-03 21:42 | 38.78708 | -9.12974 | 947 ft | 83 kts | 60° |
| 2026-05-03 21:42 | 38.78768 | -9.12195 | 1168 ft | 95 kts | 89° |
| 2026-05-03 21:43 | 38.78552 | -9.11336 | 1266 ft | 107 kts | 109° |
| 2026-05-03 21:43 | 38.78223 | -9.10460 | 1302 ft | 115 kts | 109° |
| 2026-05-03 21:43 | 38.77927 | -9.09494 | 1263 ft | 118 kts | 104° |
| 2026-05-03 21:43 | 38.77470 | -9.08637 | 1290 ft | 117 kts | 142° |
| 2026-05-03 21:44 | 38.76688 | -9.08553 | 1327 ft | 113 kts | 196° |
| 2026-05-03 21:44 | 38.75970 | -9.08916 | 1388 ft | 109 kts | 206° |
| 2026-05-03 21:44 | 38.75255 | -9.09258 | 1473 ft | 109 kts | 202° |
| 2026-05-03 21:44 | 38.74508 | -9.09564 | 1503 ft | 111 kts | 199° |
| 2026-05-03 21:45 | 38.73758 | -9.09884 | 1476 ft | 117 kts | 201° |
| 2026-05-03 21:45 | 38.72982 | -9.10233 | 1475 ft | 117 kts | 200° |
| 2026-05-03 21:45 | 38.72223 | -9.10580 | 1469 ft | 115 kts | 206° |
| 2026-05-03 21:45 | 38.71522 | -9.11088 | 1573 ft | 112 kts | 218° |
| 2026-05-03 21:46 | 38.70924 | -9.11725 | 1577 ft | 115 kts | 225° |
| 2026-05-03 21:46 | 38.70355 | -9.12447 | 1499 ft | 114 kts | 229° |
| 2026-05-03 21:46 | 38.69832 | -9.13199 | 1502 ft | 112 kts | 231° |
| 2026-05-03 21:46 | 38.69304 | -9.13943 | 1480 ft | 115 kts | 230° |
| 2026-05-03 21:47 | 38.68747 | -9.14693 | 1454 ft | 116 kts | 229° |
| 2026-05-03 21:47 | 38.68180 | -9.15415 | 1500 ft | 112 kts | 228° |
| 2026-05-03 21:47 | 38.67615 | -9.16113 | 1473 ft | 117 kts | 227° |
| 2026-05-03 21:47 | 38.67026 | -9.16840 | 1469 ft | 116 kts | 229° |
| 2026-05-03 21:48 | 38.66570 | -9.17658 | 1456 ft | 113 kts | 249° |
| 2026-05-03 21:48 | 38.66404 | -9.18619 | 1462 ft | 108 kts | 270° |
| 2026-05-03 21:48 | 38.66388 | -9.19572 | 1480 ft | 108 kts | 275° |
| 2026-05-03 21:48 | 38.66528 | -9.20522 | 1487 ft | 109 kts | 288° |
| 2026-05-03 21:49 | 38.66797 | -9.21435 | 1483 ft | 110 kts | 296° |
| 2026-05-03 21:49 | 38.67238 | -9.22210 | 1470 ft | 109 kts | 319° |
| 2026-05-03 21:49 | 38.67836 | -9.22798 | 1493 ft | 109 kts | 320° |
| 2026-05-03 21:49 | 38.68435 | -9.23394 | 1490 ft | 108 kts | 322° |
| 2026-05-03 21:50 | 38.69025 | -9.23996 | 1492 ft | 108 kts | 319° |
| 2026-05-03 21:50 | 38.69618 | -9.24602 | 1509 ft | 109 kts | 320° |
| 2026-05-03 21:50 | 38.70202 | -9.25223 | 1504 ft | 112 kts | 318° |
| 2026-05-03 21:50 | 38.70746 | -9.25947 | 1499 ft | 113 kts | 308° |
| 2026-05-03 21:51 | 38.71118 | -9.26836 | 1488 ft | 116 kts | 287° |
| 2026-05-03 21:51 | 38.71168 | -9.27877 | 1502 ft | 118 kts | 270° |
| 2026-05-03 21:51 | 38.71085 | -9.28931 | 1490 ft | 119 kts | 266° |
| 2026-05-03 21:51 | 38.71012 | -9.29979 | 1491 ft | 119 kts | 269° |
| 2026-05-03 21:52 | 38.70976 | -9.31029 | 1496 ft | 118 kts | 271° |
| 2026-05-03 21:52 | 38.70976 | -9.32084 | 1488 ft | 118 kts | 274° |
| 2026-05-03 21:52 | 38.71015 | -9.33130 | 1497 ft | 117 kts | 277° |
| 2026-05-03 21:52 | 38.71094 | -9.34161 | 1499 ft | 117 kts | 278° |
| 2026-05-03 21:53 | 38.71240 | -9.35177 | 1500 ft | 116 kts | 287° |
| 2026-05-03 21:53 | 38.71524 | -9.36155 | 1501 ft | 115 kts | 295° |
| 2026-05-03 21:53 | 38.71843 | -9.37085 | 1508 ft | 115 kts | 294° |
| 2026-05-03 21:53 | 38.72115 | -9.38060 | 1509 ft | 116 kts | 290° |
| 2026-05-03 21:54 | 38.72295 | -9.39057 | 1510 ft | 117 kts | 281° |
| 2026-05-03 21:54 | 38.72375 | -9.40096 | 1503 ft | 118 kts | 275° |
| 2026-05-03 21:54 | 38.72401 | -9.41150 | 1489 ft | 118 kts | 277° |
| 2026-05-03 21:54 | 38.72601 | -9.42155 | 1490 ft | 114 kts | 295° |
| 2026-05-03 21:55 | 38.72915 | -9.43065 | 1509 ft | 113 kts | 292° |
| 2026-05-03 21:55 | 38.73158 | -9.44036 | 1512 ft | 115 kts | 285° |
| 2026-05-03 21:55 | 38.73309 | -9.45054 | 1511 ft | 117 kts | 279° |
| 2026-05-03 21:55 | 38.73360 | -9.46094 | 1516 ft | 117 kts | 273° |
| 2026-05-03 21:56 | 38.73493 | -9.47105 | 1457 ft | 118 kts | 300° |
| 2026-05-03 21:56 | 38.74130 | -9.47690 | 1533 ft | 109 kts | 332° |
| 2026-05-03 21:56 | 38.74871 | -9.48024 | 1494 ft | 113 kts | 336° |
| 2026-05-03 21:56 | 38.75607 | -9.48393 | 1504 ft | 113 kts | 333° |
| 2026-05-03 21:57 | 38.76300 | -9.48852 | 1487 ft | 114 kts | 328° |
| 2026-05-03 21:57 | 38.76956 | -9.49422 | 1517 ft | 112 kts | 320° |
| 2026-05-03 21:57 | 38.77587 | -9.50048 | 1482 ft | 115 kts | 327° |
| 2026-05-03 21:57 | 38.78355 | -9.50230 | 1492 ft | 114 kts | 2° |
| 2026-05-03 21:58 | 38.79089 | -9.49805 | 1495 ft | 118 kts | 29° |
| 2026-05-03 21:58 | 38.79774 | -9.49263 | 1581 ft | 113 kts | 23° |
| 2026-05-03 21:58 | 38.80489 | -9.48832 | 1579 ft | 115 kts | 15° |
| 2026-05-03 21:58 | 38.81253 | -9.48472 | 1582 ft | 117 kts | 15° |
| 2026-05-03 21:59 | 38.81973 | -9.48040 | 1637 ft | 113 kts | 20° |
| 2026-05-03 21:59 | 38.82706 | -9.47611 | 1606 ft | 118 kts | 18° |
| 2026-05-03 21:59 | 38.83444 | -9.47150 | 1581 ft | 119 kts | 21° |
| 2026-05-03 21:59 | 38.84179 | -9.46700 | 1591 ft | 115 kts | 19° |
| 2026-05-03 22:00 | 38.84920 | -9.46255 | 1574 ft | 118 kts | 18° |
| 2026-05-03 22:00 | 38.85664 | -9.45800 | 1560 ft | 117 kts | 19° |
| 2026-05-03 22:00 | 38.86393 | -9.45366 | 1564 ft | 115 kts | 19° |
| 2026-05-03 22:00 | 38.87124 | -9.44936 | 1565 ft | 115 kts | 18° |
| 2026-05-03 22:01 | 38.87854 | -9.44502 | 1561 ft | 115 kts | 17° |
| 2026-05-03 22:01 | 38.88576 | -9.44070 | 1570 ft | 115 kts | 19° |
| 2026-05-03 22:01 | 38.89306 | -9.43635 | 1583 ft | 115 kts | 17° |
| 2026-05-03 22:01 | 38.90065 | -9.43298 | 1582 ft | 114 kts | 11° |
| 2026-05-03 22:02 | 38.90820 | -9.43009 | 1577 ft | 114 kts | 7° |
| 2026-05-03 22:02 | 38.91602 | -9.42810 | 1585 ft | 114 kts | 7° |
| 2026-05-03 22:02 | 38.92385 | -9.42644 | 1579 ft | 113 kts | 3° |
| 2026-05-03 22:02 | 38.93163 | -9.42530 | 1574 ft | 113 kts | 1° |
| 2026-05-03 22:03 | 38.93951 | -9.42396 | 1568 ft | 114 kts | 2° |
| 2026-05-03 22:03 | 38.94742 | -9.42265 | 1571 ft | 114 kts | 1° |
| 2026-05-03 22:03 | 38.95530 | -9.42134 | 1569 ft | 112 kts | 2° |
| 2026-05-03 22:03 | 38.96312 | -9.42047 | 1565 ft | 112 kts | 355° |
| 2026-05-03 22:04 | 38.97084 | -9.42071 | 1577 ft | 111 kts | 354° |
| 2026-05-03 22:04 | 38.97866 | -9.42112 | 1577 ft | 112 kts | 355° |
| 2026-05-03 22:04 | 38.98642 | -9.42144 | 1578 ft | 113 kts | 355° |
| 2026-05-03 22:04 | 38.99417 | -9.42179 | 1656 ft | 107 kts | 354° |
| 2026-05-03 22:05 | 39.00112 | -9.42194 | 1923 ft | 89 kts | 351° |
| 2026-05-03 22:05 | 39.00744 | -9.42249 | 1948 ft | 90 kts | 349° |
| 2026-05-03 22:05 | 39.01382 | -9.42184 | 1976 ft | 94 kts | 13° |
| 2026-05-03 22:05 | 39.01798 | -9.41511 | 1904 ft | 109 kts | 71° |
| 2026-05-03 22:06 | 39.01524 | -9.40554 | 1693 ft | 126 kts | 132° |
| 2026-05-03 22:06 | 39.00721 | -9.40348 | 1504 ft | 119 kts | 204° |
| 2026-05-03 22:06 | 39.00109 | -9.40975 | 1468 ft | 102 kts | 225° |
| 2026-05-03 22:06 | 38.99577 | -9.41488 | 1530 ft | 99 kts | 215° |
| 2026-05-03 22:07 | 38.98957 | -9.41969 | 1478 ft | 103 kts | 213° |
| 2026-05-03 22:07 | 38.98309 | -9.42363 | 1508 ft | 104 kts | 197° |
| 2026-05-03 22:07 | 38.97575 | -9.42558 | 1502 ft | 108 kts | 189° |
| 2026-05-03 22:07 | 38.96828 | -9.42726 | 1495 ft | 112 kts | 191° |
| 2026-05-03 22:08 | 38.96041 | -9.42893 | 1492 ft | 114 kts | 190° |
| 2026-05-03 22:08 | 38.95255 | -9.43065 | 1490 ft | 114 kts | 189° |
| 2026-05-03 22:08 | 38.94476 | -9.43228 | 1491 ft | 113 kts | 190° |
| 2026-05-03 22:08 | 38.93706 | -9.43381 | 1496 ft | 113 kts | 188° |
| 2026-05-03 22:09 | 38.92929 | -9.43540 | 1498 ft | 112 kts | 189° |
| 2026-05-03 22:09 | 38.92156 | -9.43686 | 1496 ft | 112 kts | 189° |
| 2026-05-03 22:09 | 38.91386 | -9.43836 | 1496 ft | 112 kts | 189° |
| 2026-05-03 22:10 | 38.89855 | -9.44219 | 1497 ft | 111 kts | 195° |
| 2026-05-03 22:10 | 38.89105 | -9.44484 | 1507 ft | 111 kts | 198° |
| 2026-05-03 22:10 | 38.88338 | -9.44781 | 1526 ft | 120 kts | 198° |
| 2026-05-03 22:10 | 38.87550 | -9.45207 | 1517 ft | 125 kts | 205° |
| 2026-05-03 22:11 | 38.86733 | -9.45679 | 1498 ft | 130 kts | 206° |
| 2026-05-03 22:11 | 38.85910 | -9.46150 | 1500 ft | 128 kts | 206° |
| 2026-05-03 22:11 | 38.85091 | -9.46612 | 1496 ft | 128 kts | 205° |
| 2026-05-03 22:11 | 38.84281 | -9.47073 | 1499 ft | 127 kts | 206° |
| 2026-05-03 22:12 | 38.83475 | -9.47537 | 1499 ft | 127 kts | 205° |
| 2026-05-03 22:12 | 38.82666 | -9.47998 | 1500 ft | 126 kts | 206° |
| 2026-05-03 22:12 | 38.81858 | -9.48472 | 1496 ft | 129 kts | 205° |
| 2026-05-03 22:12 | 38.81049 | -9.48947 | 1512 ft | 127 kts | 205° |
| 2026-05-03 22:13 | 38.80231 | -9.49425 | 1497 ft | 128 kts | 205° |
| 2026-05-03 22:13 | 38.79427 | -9.49893 | 1495 ft | 127 kts | 205° |
| 2026-05-03 22:13 | 38.78613 | -9.50327 | 1499 ft | 122 kts | 197° |
| 2026-05-03 22:13 | 38.77797 | -9.50598 | 1497 ft | 123 kts | 195° |
| 2026-05-03 22:14 | 38.76969 | -9.50869 | 1498 ft | 123 kts | 194° |
| 2026-05-03 22:14 | 38.76134 | -9.51129 | 1503 ft | 122 kts | 193° |
| 2026-05-03 22:14 | 38.75327 | -9.51037 | 1624 ft | 118 kts | 158° |
| 2026-05-03 22:14 | 38.74635 | -9.50487 | 1714 ft | 116 kts | 129° |
| 2026-05-03 22:15 | 38.74234 | -9.49633 | 1625 ft | 110 kts | 103° |
| 2026-05-03 22:15 | 38.73955 | -9.48731 | 1523 ft | 107 kts | 101° |
| 2026-05-03 22:15 | 38.73684 | -9.47870 | 1483 ft | 99 kts | 101° |
| 2026-05-03 22:15 | 38.73430 | -9.47091 | 1495 ft | 92 kts | 101° |
| 2026-05-03 22:16 | 38.73193 | -9.46335 | 1504 ft | 91 kts | 101° |
| 2026-05-03 22:16 | 38.72980 | -9.45562 | 1508 ft | 92 kts | 99° |
| 2026-05-03 22:16 | 38.72771 | -9.44791 | 1503 ft | 91 kts | 97° |
| 2026-05-03 22:16 | 38.72567 | -9.44020 | 1499 ft | 90 kts | 96° |
| 2026-05-03 22:17 | 38.72408 | -9.43263 | 1505 ft | 87 kts | 87° |
| 2026-05-03 22:17 | 38.72271 | -9.42487 | 1486 ft | 90 kts | 93° |
| 2026-05-03 22:17 | 38.72058 | -9.41723 | 1489 ft | 90 kts | 101° |
| 2026-05-03 22:17 | 38.71813 | -9.40994 | 1493 ft | 91 kts | 105° |
| 2026-05-03 22:18 | 38.71556 | -9.40231 | 1480 ft | 92 kts | 101° |
| 2026-05-03 22:18 | 38.71320 | -9.39480 | 1481 ft | 89 kts | 101° |
| 2026-05-03 22:18 | 38.71093 | -9.38746 | 1491 ft | 89 kts | 103° |
| 2026-05-03 22:18 | 38.70855 | -9.38014 | 1493 ft | 89 kts | 102° |
| 2026-05-03 22:19 | 38.70585 | -9.37280 | 1485 ft | 91 kts | 109° |
| 2026-05-03 22:19 | 38.70200 | -9.36641 | 1540 ft | 94 kts | 129° |
| 2026-05-03 22:19 | 38.69635 | -9.36110 | 1516 ft | 105 kts | 142° |
| 2026-05-03 22:19 | 38.68979 | -9.35676 | 1503 ft | 109 kts | 152° |
| 2026-05-03 22:20 | 38.68279 | -9.35320 | 1702 ft | 100 kts | 162° |
| 2026-05-03 22:20 | 38.67636 | -9.35081 | 2054 ft | 95 kts | 161° |
| 2026-05-03 22:20 | 38.66953 | -9.34876 | 2233 ft | 109 kts | 170° |
| 2026-05-03 22:20 | 38.66188 | -9.34660 | 2382 ft | 116 kts | 159° |
| 2026-05-03 22:21 | 38.65605 | -9.33970 | 2528 ft | 117 kts | 124° |
| 2026-05-03 22:21 | 38.65054 | -9.33142 | 2536 ft | 128 kts | 126° |
| 2026-05-03 22:21 | 38.64429 | -9.32268 | 2521 ft | 130 kts | 125° |
| 2026-05-03 22:21 | 38.63842 | -9.31354 | 2513 ft | 137 kts | 123° |
| 2026-05-03 22:22 | 38.63277 | -9.30377 | 2523 ft | 137 kts | 120° |
| 2026-05-03 22:22 | 38.62738 | -9.29354 | 2521 ft | 139 kts | 119° |
| 2026-05-03 22:22 | 38.62206 | -9.28319 | 2516 ft | 139 kts | 117° |
| 2026-05-03 22:22 | 38.61670 | -9.27292 | 2512 ft | 138 kts | 117° |
| 2026-05-03 22:23 | 38.61137 | -9.26274 | 2352 ft | 137 kts | 117° |
| 2026-05-03 22:23 | 38.60596 | -9.25263 | 2100 ft | 141 kts | 117° |
| 2026-05-03 22:23 | 38.60109 | -9.24228 | 2019 ft | 130 kts | 108° |
| 2026-05-03 22:23 | 38.60126 | -9.23228 | 2038 ft | 108 kts | 42° |
| 2026-05-03 22:24 | 38.60760 | -9.22798 | 2017 ft | 102 kts | 11° |
| 2026-05-03 22:24 | 38.61438 | -9.22523 | 2016 ft | 102 kts | 11° |
| 2026-05-03 22:24 | 38.62131 | -9.22178 | 2023 ft | 114 kts | 15° |
| 2026-05-03 22:24 | 38.62882 | -9.21765 | 2019 ft | 118 kts | 15° |
| 2026-05-03 22:25 | 38.63626 | -9.21375 | 2008 ft | 114 kts | 13° |
| 2026-05-03 22:25 | 38.64364 | -9.20992 | 2013 ft | 111 kts | 15° |
| 2026-05-03 22:25 | 38.65078 | -9.20610 | 2010 ft | 110 kts | 16° |
| 2026-05-03 22:25 | 38.65772 | -9.20234 | 2016 ft | 109 kts | 14° |
| 2026-05-03 22:26 | 38.66480 | -9.19857 | 2016 ft | 109 kts | 14° |
| 2026-05-03 22:26 | 38.67183 | -9.19481 | 2014 ft | 108 kts | 15° |
| 2026-05-03 22:26 | 38.67879 | -9.19107 | 2025 ft | 109 kts | 14° |
| 2026-05-03 22:26 | 38.68582 | -9.18737 | 2003 ft | 109 kts | 13° |
| 2026-05-03 22:27 | 38.69281 | -9.18373 | 1940 ft | 110 kts | 13° |
| 2026-05-03 22:27 | 38.69992 | -9.17994 | 1810 ft | 112 kts | 15° |
| 2026-05-03 22:27 | 38.70718 | -9.17608 | 1658 ft | 111 kts | 13° |
| 2026-05-03 22:27 | 38.71417 | -9.17247 | 1535 ft | 101 kts | 14° |
| 2026-05-03 22:28 | 38.72046 | -9.16922 | 1405 ft | 95 kts | 11° |
| 2026-05-03 22:28 | 38.72644 | -9.16577 | 1268 ft | 93 kts | 22° |
| 2026-05-03 22:28 | 38.73203 | -9.16198 | 1151 ft | 90 kts | 15° |
| 2026-05-03 22:28 | 38.73779 | -9.15900 | 1025 ft | 88 kts | 9° |
| 2026-05-03 22:29 | 38.74341 | -9.15628 | 894 ft | 87 kts | 13° |
| 2026-05-03 22:29 | 38.74857 | -9.15315 | 839 ft | 75 kts | 18° |
| 2026-05-03 22:29 | 38.75325 | -9.15066 | 732 ft | 72 kts | 14° |
| 2026-05-03 22:29 | 38.75755 | -9.14865 | 599 ft | 61 kts | 12° |
| 2026-05-03 22:30 | 38.76083 | -9.14676 | 542 ft | 47 kts | 20° |
| 2026-05-03 22:30 | 38.76376 | -9.14528 | 508 ft | 49 kts | 20° |
| 2026-05-03 22:30 | 38.76702 | -9.14354 | 422 ft | 44 kts | 19° |
| 2026-05-03 22:30 | 38.76952 | -9.14221 | 405 ft | 31 kts | 21° |
| 2026-05-03 22:31 | 38.77081 | -9.14153 | 407 ft | 18 kts | 36° |
| 2026-05-03 22:31 | 38.77161 | -9.14096 | 399 ft | 8 kts | 124° |
| 2026-05-03 22:31 | 38.77139 | -9.14047 | 393 ft | 1 kts | 118° |
| 2026-05-03 22:31 | 38.77142 | -9.14044 | 391 ft | 2 kts | 118° |
| 2026-05-03 22:32 | 38.77143 | -9.14042 | 389 ft | 3 kts | 127° |
| 2026-05-03 22:32 | 38.77136 | -9.14031 | 379 ft | 0 kts | 109° |
| 2026-05-03 22:33 | 38.77126 | -9.14004 | 385 ft | 8 kts | 108° |
| 2026-05-03 22:33 | 38.77132 | -9.13918 | 390 ft | 12 kts | 63° |
| 2026-05-03 22:34 | 38.77195 | -9.13862 | 391 ft | 10 kts | 34° |
| 2026-05-03 22:34 | 38.77250 | -9.13765 | 390 ft | 11 kts | 85° |
| 2026-05-03 22:34 | 38.77268 | -9.13669 | 393 ft | 10 kts | 91° |
| 2026-05-03 22:34 | 38.77276 | -9.13582 | 389 ft | 10 kts | 80° |
| 2026-05-03 22:35 | 38.77315 | -9.13506 | 407 ft | 15 kts | 14° |
| 2026-05-03 22:35 | 38.77417 | -9.13537 | 411 ft | 11 kts | 13° |
| 2026-05-03 22:35 | 38.77494 | -9.13477 | 415 ft | 15 kts | 41° |
| 2026-05-03 22:35 | 38.77598 | -9.13419 | 411 ft | 16 kts | 28° |
| 2026-05-03 22:36 | 38.77700 | -9.13366 | 396 ft | 11 kts | 39° |
| 2026-05-03 22:36 | 38.77737 | -9.13281 | 397 ft | 15 kts | 84° |
| 2026-05-03 22:36 | 38.77755 | -9.13153 | 401 ft | 18 kts | 86° |
| 2026-05-03 22:36 | 38.77819 | -9.13023 | 408 ft | 21 kts | 357° |
| 2026-05-03 22:37 | 38.77963 | -9.13060 | 406 ft | 22 kts | 352° |
| 2026-05-03 22:37 | 38.78066 | -9.13067 | 395 ft | 10 kts | 44° |
| 2026-05-03 22:37 | 38.78131 | -9.12999 | 385 ft | 9 kts | 112° |
| 2026-05-03 22:37 | 38.78114 | -9.12963 | 386 ft | 1 kts | 197° |
| 2026-05-03 22:38 | 38.78110 | -9.12968 | 380 ft | 1 kts | 313° |
| 2026-05-03 22:38 | 38.78111 | -9.12967 | 379 ft | 0 kts | 304° |